Time,TemperatureF,DewpointF,PressureIn,WindDirection,WindDirectionDegrees,WindSpeedMPH,WindSpeedGustMPH,Humidity,HourlyPrecipIn,Conditions,Clouds,dailyrainin,SoftwareType,DateUTC
2013-04-03 00:02:00,49.0,37.0,-100.00,NW,322,4.0,4.0,64,-99.99,,,-99.99,,2013-04-03 07:02:00,
2013-04-03 00:12:00,49.0,38.0,-100.00,NNW,331,4.0,4.0,66,-99.99,,,-99.99,,2013-04-03 07:12:00,
2013-04-03 00:22:00,49.0,38.0,-100.00,NNW,328,3.0,4.0,65,-99.99,,,-99.99,,2013-04-03 07:22:00,
2013-04-03 00:32:00,49.0,38.0,-100.00,NNW,339,3.0,3.0,65,-99.99,,,-99.99,,2013-04-03 07:32:00,
2013-04-03 00:42:00,49.0,38.0,-100.00,NNW,333,3.0,4.0,65,-99.99,,,-99.99,,2013-04-03 07:42:00,
2013-04-03 00:52:00,49.0,37.0,-100.00,NNW,327,3.0,4.0,64,-99.99,,,-99.99,,2013-04-03 07:52:00,
2013-04-03 01:02:00,49.0,37.0,-100.00,NNW,338,3.0,4.0,63,-99.99,,,-99.99,,2013-04-03 08:02:00,
2013-04-03 01:12:00,49.0,37.0,-100.00,NW,324,4.0,5.0,62,-99.99,,,-99.99,,2013-04-03 08:12:00,
2013-04-03 01:22:00,49.0,37.0,-100.00,NNW,343,3.0,4.0,62,-99.99,,,-99.99,,2013-04-03 08:22:00,
2013-04-03 01:32:00,49.0,37.0,-100.00,NNW,328,4.0,5.0,62,-99.99,,,-99.99,,2013-04-03 08:32:00,
2013-04-03 01:42:00,49.0,37.0,-100.00,NNW,327,3.0,4.0,63,-99.99,,,-99.99,,2013-04-03 08:42:00,
2013-04-03 01:52:00,48.0,36.0,-100.00,NW,309,3.0,4.0,64,-99.99,,,-99.99,,2013-04-03 08:52:00,
2013-04-03 02:02:00,48.0,36.0,-100.00,NW,305,1.0,2.0,64,-99.99,,,-99.99,,2013-04-03 09:02:00,
2013-04-03 02:11:00,49.0,37.0,-100.00,NNW,334,3.0,4.0,62,-99.99,,,-99.99,,2013-04-03 09:11:00,
2013-04-03 02:22:00,49.0,36.0,-100.00,NW,325,3.0,4.0,60,-99.99,,,-99.99,,2013-04-03 09:22:00,
2013-04-03 02:32:00,49.0,36.0,-100.00,NW,326,2.0,3.0,61,-99.99,,,-99.99,,2013-04-03 09:32:00,
2013-04-03 02:42:00,48.0,35.0,-100.00,NW,316,2.0,3.0,61,-99.99,,,-99.99,,2013-04-03 09:42:00,
2013-04-03 02:52:00,48.0,35.0,-100.00,NNW,331,2.0,3.0,61,-99.99,,,-99.99,,2013-04-03 09:52:00,
2013-04-03 03:02:00,49.0,35.0,-100.00,NNW,329,2.0,3.0,59,-99.99,,,-99.99,,2013-04-03 10:02:00,
2013-04-03 03:12:00,49.0,35.0,-100.00,NNW,329,2.0,3.0,58,-99.99,,,-99.99,,2013-04-03 10:12:00,
2013-04-03 03:22:00,50.0,34.0,-100.00,NNW,333,3.0,4.0,55,-99.99,,,-99.99,,2013-04-03 10:22:00,
2013-04-03 03:33:00,49.0,34.0,-100.00,NNW,328,4.0,5.0,57,-99.99,,,-99.99,,2013-04-03 10:33:00,
2013-04-03 03:42:00,48.0,34.0,-100.00,NNW,330,4.0,4.0,59,-99.99,,,-99.99,,2013-04-03 10:42:00,
2013-04-03 03:52:00,48.0,34.0,-100.00,NNW,328,3.0,4.0,59,-99.99,,,-99.99,,2013-04-03 10:52:00,
2013-04-03 04:02:00,48.0,34.0,-100.00,NNW,330,3.0,4.0,58,-99.99,,,-99.99,,2013-04-03 11:02:00,
2013-04-03 04:12:00,49.0,34.0,-100.00,NW,321,3.0,4.0,56,-99.99,,,-99.99,,2013-04-03 11:12:00,
2013-04-03 04:22:00,49.0,34.0,-100.00,NW,323,3.0,4.0,55,-99.99,,,-99.99,,2013-04-03 11:22:00,
2013-04-03 04:32:00,48.0,34.0,-100.00,NW,325,3.0,4.0,57,-99.99,,,-99.99,,2013-04-03 11:32:00,
2013-04-03 04:42:00,47.0,33.0,-100.00,NNW,327,3.0,4.0,59,-99.99,,,-99.99,,2013-04-03 11:42:00,
2013-04-03 04:52:00,47.0,33.0,-100.00,NW,322,4.0,5.0,59,-99.99,,,-99.99,,2013-04-03 11:52:00,
2013-04-03 05:01:00,46.0,33.0,-100.00,NW,326,4.0,5.0,60,-99.99,,,-99.99,,2013-04-03 12:01:00,
2013-04-03 05:12:00,46.0,33.0,-100.00,NNW,331,3.0,4.0,61,-99.99,,,-99.99,,2013-04-03 12:12:00,
2013-04-03 05:22:00,46.0,32.0,-100.00,NNW,337,2.0,3.0,59,-99.99,,,-99.99,,2013-04-03 12:22:00,
2013-04-03 05:32:00,48.0,33.0,-100.00,WNW,301,2.0,3.0,56,-99.99,,,-99.99,,2013-04-03 12:32:00,
2013-04-03 05:42:00,48.0,32.0,-100.00,NNW,331,3.0,4.0,53,-99.99,,,-99.99,,2013-04-03 12:42:00,
2013-04-03 05:52:00,47.0,32.0,-100.00,NW,324,1.0,2.0,55,-99.99,,,-99.99,,2013-04-03 12:52:00,
2013-04-03 06:02:00,49.0,32.0,-100.00,NNW,330,2.0,3.0,51,-99.99,,,-99.99,,2013-04-03 13:02:00,
2013-04-03 06:12:00,49.0,31.0,-100.00,WNW,297,1.0,2.0,49,-99.99,,,-99.99,,2013-04-03 13:12:00,
2013-04-03 06:22:00,49.0,30.0,-100.00,NW,317,1.0,2.0,48,-99.99,,,-99.99,,2013-04-03 13:22:00,
2013-04-03 06:32:00,50.0,29.0,-100.00,NNW,333,2.0,3.0,45,-99.99,,,-99.99,,2013-04-03 13:32:00,
2013-04-03 06:42:00,49.0,30.0,-100.00,NW,305,2.0,3.0,47,-99.99,,,-99.99,,2013-04-03 13:42:00,
2013-04-03 06:52:00,49.0,29.0,-100.00,NNW,330,2.0,4.0,46,-99.99,,,-99.99,,2013-04-03 13:52:00,
2013-04-03 07:02:00,49.0,29.0,-100.00,NW,322,3.0,3.0,45,-99.99,,,-99.99,,2013-04-03 14:02:00,
2013-04-03 07:12:00,49.0,28.0,-100.00,NW,312,2.0,3.0,44,-99.99,,,-99.99,,2013-04-03 14:12:00,
2013-04-03 07:22:00,50.0,28.0,-100.00,NW,326,2.0,4.0,43,-99.99,,,-99.99,,2013-04-03 14:22:00,
2013-04-03 07:32:00,49.0,29.0,-100.00,WNW,302,2.0,4.0,45,-99.99,,,-99.99,,2013-04-03 14:32:00,
2013-04-03 07:42:00,49.0,29.0,-100.00,NW,325,2.0,3.0,45,-99.99,,,-99.99,,2013-04-03 14:42:00,
2013-04-03 07:52:00,49.0,28.0,-100.00,NNW,332,2.0,2.0,44,-99.99,,,-99.99,,2013-04-03 14:52:00,
2013-04-03 08:02:00,50.0,29.0,-100.00,NW,317,2.0,4.0,44,-99.99,,,-99.99,,2013-04-03 15:02:00,
2013-04-03 08:12:00,51.0,28.0,-100.00,NW,305,2.0,2.0,40,-99.99,,,-99.99,,2013-04-03 15:12:00,
2013-04-03 08:22:00,53.0,28.0,-100.00,NW,323,1.0,2.0,38,-99.99,,,-99.99,,2013-04-03 15:22:00,
2013-04-03 08:32:00,54.0,28.0,-100.00,NW,324,2.0,3.0,37,-99.99,,,-99.99,,2013-04-03 15:32:00,
2013-04-03 08:42:00,54.0,30.0,-100.00,NNW,332,2.0,3.0,39,-99.99,,,-99.99,,2013-04-03 15:42:00,
2013-04-03 08:53:00,55.0,32.0,-100.00,NNW,336,2.0,3.0,41,-99.99,,,-99.99,,2013-04-03 15:53:00,
2013-04-03 09:02:00,56.0,32.0,-100.00,NNW,331,1.0,3.0,40,-99.99,,,-99.99,,2013-04-03 16:02:00,
2013-04-03 09:12:00,58.0,32.0,-100.00,NNW,327,2.0,4.0,37,-99.99,,,-99.99,,2013-04-03 16:12:00,
2013-04-03 09:23:00,58.0,34.0,-100.00,NNW,329,2.0,3.0,40,-99.99,,,-99.99,,2013-04-03 16:23:00,
2013-04-03 09:32:00,60.0,34.0,-100.00,NNW,330,2.0,2.0,37,-99.99,,,-99.99,,2013-04-03 16:32:00,
2013-04-03 09:43:00,63.0,33.0,-100.00,NNW,346,2.0,3.0,32,-99.99,,,-99.99,,2013-04-03 16:43:00,
2013-04-03 09:52:00,66.0,29.0,-100.00,ESE,107,2.0,6.0,25,-99.99,,,-99.99,,2013-04-03 16:52:00,
2013-04-03 10:02:00,66.0,26.0,-100.00,ESE,113,6.0,11.0,22,-99.99,,,-99.99,,2013-04-03 17:02:00,
2013-04-03 10:12:00,67.0,27.0,-100.00,ESE,113,6.0,12.0,22,-99.99,,,-99.99,,2013-04-03 17:12:00,
2013-04-03 10:22:00,67.0,26.0,-100.00,ESE,109,7.0,12.0,21,-99.99,,,-99.99,,2013-04-03 17:22:00,
2013-04-03 10:32:00,68.0,27.0,-100.00,SE,128,6.0,11.0,21,-99.99,,,-99.99,,2013-04-03 17:32:00,
2013-04-03 10:45:00,68.0,25.0,-100.00,ESE,123,8.0,17.0,20,-99.99,,,-99.99,,2013-04-03 17:45:00,
2013-04-03 10:52:00,68.0,25.0,-100.00,SE,127,8.0,14.0,20,-99.99,,,-99.99,,2013-04-03 17:52:00,
2013-04-03 11:02:00,69.0,26.0,-100.00,SE,130,7.0,13.0,20,-99.99,,,-99.99,,2013-04-03 18:02:00,
2013-04-03 11:12:00,69.0,25.0,-100.00,SE,128,8.0,15.0,19,-99.99,,,-99.99,,2013-04-03 18:12:00,
2013-04-03 11:21:00,69.0,25.0,-100.00,SE,134,9.0,16.0,19,-99.99,,,-99.99,,2013-04-03 18:21:00,
2013-04-03 11:33:00,70.0,26.0,-100.00,SSE,147,8.0,15.0,19,-99.99,,,-99.99,,2013-04-03 18:33:00,
2013-04-03 11:42:00,69.0,24.0,-100.00,ESE,121,8.0,15.0,18,-99.99,,,-99.99,,2013-04-03 18:42:00,
2013-04-03 11:52:00,70.0,25.0,-100.00,SE,133,8.0,13.0,18,-99.99,,,-99.99,,2013-04-03 18:52:00,
2013-04-03 12:02:00,70.0,25.0,-100.00,SSE,152,8.0,14.0,18,-99.99,,,-99.99,,2013-04-03 19:02:00,
2013-04-03 12:12:00,70.0,25.0,-100.00,SSE,166,8.0,16.0,18,-99.99,,,-99.99,,2013-04-03 19:12:00,
2013-04-03 12:22:00,70.0,25.0,-100.00,East,100,6.0,14.0,18,-99.99,,,-99.99,,2013-04-03 19:22:00,
2013-04-03 12:42:00,71.0,25.0,-100.00,SSE,152,7.0,13.0,18,-99.99,,,-99.99,,2013-04-03 19:42:00,
2013-04-03 12:52:00,71.0,24.0,-100.00,ESE,111,8.0,14.0,17,-99.99,,,-99.99,,2013-04-03 19:52:00,
2013-04-03 13:02:00,71.0,24.0,-100.00,ESE,120,7.0,18.0,17,-99.99,,,-99.99,,2013-04-03 20:02:00,
2013-04-03 13:12:00,71.0,25.0,-100.00,SE,143,9.0,18.0,18,-99.99,,,-99.99,,2013-04-03 20:12:00,
2013-04-03 13:22:00,71.0,24.0,-100.00,SE,132,10.0,17.0,17,-99.99,,,-99.99,,2013-04-03 20:22:00,
2013-04-03 13:32:00,71.0,24.0,-100.00,SE,137,9.0,16.0,17,-99.99,,,-99.99,,2013-04-03 20:32:00,
2013-04-03 13:42:00,72.0,23.0,-100.00,SE,134,10.0,16.0,16,-99.99,,,-99.99,,2013-04-03 20:42:00,
2013-04-03 13:52:00,72.0,25.0,-100.00,ESE,119,9.0,17.0,17,-99.99,,,-99.99,,2013-04-03 20:52:00,
2013-04-03 14:02:00,73.0,24.0,-100.00,ESE,123,7.0,18.0,16,-99.99,,,-99.99,,2013-04-03 21:02:00,
2013-04-03 14:12:00,73.0,24.0,-100.00,SE,124,8.0,14.0,16,-99.99,,,-99.99,,2013-04-03 21:12:00,
2013-04-03 14:22:00,73.0,24.0,-100.00,SSE,153,8.0,12.0,16,-99.99,,,-99.99,,2013-04-03 21:22:00,
2013-04-03 14:32:00,73.0,24.0,-100.00,SE,139,8.0,13.0,16,-99.99,,,-99.99,,2013-04-03 21:32:00,
2013-04-03 14:42:00,73.0,24.0,-100.00,SSW,197,5.0,14.0,16,-99.99,,,-99.99,,2013-04-03 21:42:00,
2013-04-03 14:52:00,73.0,24.0,-100.00,SSE,164,6.0,14.0,16,-99.99,,,-99.99,,2013-04-03 21:52:00,
2013-04-03 15:02:00,73.0,23.0,-100.00,South,172,5.0,12.0,15,-99.99,,,-99.99,,2013-04-03 22:02:00,
2013-04-03 15:12:00,72.0,40.0,-100.00,West,260,8.0,13.0,31,-99.99,,,-99.99,,2013-04-03 22:12:00,
2013-04-03 15:22:00,70.0,42.0,-100.00,West,265,10.0,16.0,36,-99.99,,,-99.99,,2013-04-03 22:22:00,
2013-04-03 15:32:00,69.0,42.0,-100.00,West,278,10.0,15.0,37,-99.99,,,-99.99,,2013-04-03 22:32:00,
2013-04-03 15:42:00,69.0,42.0,-100.00,WNW,293,11.0,19.0,38,-99.99,,,-99.99,,2013-04-03 22:42:00,
2013-04-03 15:52:00,68.0,42.0,-100.00,WNW,294,13.0,17.0,39,-99.99,,,-99.99,,2013-04-03 22:52:00,
2013-04-03 16:02:00,69.0,40.0,-100.00,WNW,290,11.0,18.0,35,-99.99,,,-99.99,,2013-04-03 23:02:00,
2013-04-03 16:12:00,70.0,40.0,-100.00,West,281,10.0,18.0,34,-99.99,,,-99.99,,2013-04-03 23:12:00,
2013-04-03 16:22:00,69.0,39.0,-100.00,WNW,283,11.0,17.0,33,-99.99,,,-99.99,,2013-04-03 23:22:00,
2013-04-03 16:32:00,67.0,43.0,-100.00,West,275,12.0,17.0,42,-99.99,,,-99.99,,2013-04-03 23:32:00,
2013-04-03 16:42:00,67.0,43.0,-100.00,West,275,12.0,17.0,42,-99.99,,,-99.99,,2013-04-03 23:42:00,
2013-04-03 16:53:00,68.0,43.0,-100.00,WNW,296,9.0,16.0,41,-99.99,,,-99.99,,2013-04-03 23:53:00,
2013-04-03 17:02:00,68.0,43.0,-100.00,WNW,286,11.0,18.0,40,-99.99,,,-99.99,,2013-04-04 00:02:00,
2013-04-03 17:12:00,67.0,43.0,-100.00,West,275,11.0,17.0,42,-99.99,,,-99.99,,2013-04-04 00:12:00,
2013-04-03 17:22:00,66.0,45.0,-100.00,WNW,285,9.0,14.0,46,-99.99,,,-99.99,,2013-04-04 00:22:00,
2013-04-03 17:32:00,66.0,43.0,-100.00,WNW,300,10.0,14.0,43,-99.99,,,-99.99,,2013-04-04 00:32:00,
2013-04-03 17:42:00,66.0,43.0,-100.00,WNW,293,9.0,15.0,44,-99.99,,,-99.99,,2013-04-04 00:42:00,
2013-04-03 17:52:00,66.0,42.0,-100.00,WNW,296,9.0,13.0,42,-99.99,,,-99.99,,2013-04-04 00:52:00,
2013-04-03 18:02:00,67.0,41.0,-100.00,NW,306,6.0,12.0,38,-99.99,,,-99.99,,2013-04-04 01:02:00,
2013-04-03 18:11:00,65.0,39.0,-100.00,WNW,295,8.0,13.0,38,-99.99,,,-99.99,,2013-04-04 01:11:00,
2013-04-03 18:22:00,65.0,37.0,-100.00,WNW,284,9.0,13.0,36,-99.99,,,-99.99,,2013-04-04 01:22:00,
2013-04-03 18:32:00,65.0,39.0,-100.00,WNW,286,9.0,14.0,38,-99.99,,,-99.99,,2013-04-04 01:32:00,
2013-04-03 18:43:00,65.0,36.0,-100.00,WNW,293,9.0,14.0,34,-99.99,,,-99.99,,2013-04-04 01:43:00,
2013-04-03 18:52:00,65.0,34.0,-100.00,WNW,286,8.0,13.0,32,-99.99,,,-99.99,,2013-04-04 01:52:00,
2013-04-03 19:02:00,65.0,34.0,-100.00,WNW,303,6.0,10.0,32,-99.99,,,-99.99,,2013-04-04 02:02:00,
2013-04-03 19:12:00,64.0,34.0,-100.00,NW,306,5.0,8.0,33,-99.99,,,-99.99,,2013-04-04 02:12:00,
2013-04-03 19:22:00,64.0,35.0,-100.00,NW,317,3.0,6.0,34,-99.99,,,-99.99,,2013-04-04 02:22:00,
2013-04-03 19:32:00,62.0,34.0,-100.00,NW,321,3.0,5.0,35,-99.99,,,-99.99,,2013-04-04 02:32:00,
2013-04-03 19:42:00,62.0,34.0,-100.00,NW,321,3.0,5.0,35,-99.99,,,-99.99,,2013-04-04 02:42:00,
2013-04-03 19:52:00,62.0,34.0,-100.00,NW,321,3.0,5.0,35,-99.99,,,-99.99,,2013-04-04 02:52:00,
2013-04-03 20:02:00,61.0,34.0,-100.00,NNE,12,3.0,5.0,36,-99.99,,,-99.99,,2013-04-04 03:02:00,
2013-04-03 20:11:00,60.0,34.0,-100.00,NNW,331,2.0,3.0,38,-99.99,,,-99.99,,2013-04-04 03:11:00,
2013-04-03 20:22:00,60.0,34.0,-100.00,NNW,342,2.0,4.0,38,-99.99,,,-99.99,,2013-04-04 03:22:00,
2013-04-03 20:33:00,59.0,35.0,-100.00,North,355,1.0,2.0,40,-99.99,,,-99.99,,2013-04-04 03:33:00,
2013-04-03 20:43:00,59.0,35.0,-100.00,North,10,2.0,4.0,40,-99.99,,,-99.99,,2013-04-04 03:43:00,
2013-04-03 20:53:00,60.0,34.0,-100.00,NNE,13,2.0,3.0,37,-99.99,,,-99.99,,2013-04-04 03:53:00,
2013-04-03 21:02:00,59.0,35.0,-100.00,WNW,303,0.0,1.0,40,-99.99,,,-99.99,,2013-04-04 04:02:00,
2013-04-03 21:12:00,58.0,35.0,-100.00,NNW,348,0.0,1.0,42,-99.99,,,-99.99,,2013-04-04 04:12:00,
2013-04-03 21:22:00,58.0,36.0,-100.00,SSW,206,1.0,2.0,43,-99.99,,,-99.99,,2013-04-04 04:22:00,
2013-04-03 21:33:00,57.0,35.0,-100.00,West,263,1.0,2.0,44,-99.99,,,-99.99,,2013-04-04 04:33:00,
2013-04-03 21:42:00,57.0,36.0,-100.00,NNW,336,1.0,2.0,46,-99.99,,,-99.99,,2013-04-04 04:42:00,
2013-04-03 21:52:00,57.0,37.0,-100.00,NNW,330,2.0,3.0,47,-99.99,,,-99.99,,2013-04-04 04:52:00,
2013-04-03 22:02:00,56.0,37.0,-100.00,NNW,335,3.0,3.0,48,-99.99,,,-99.99,,2013-04-04 05:02:00,
2013-04-03 22:12:00,55.0,37.0,-100.00,NW,305,2.0,3.0,51,-99.99,,,-99.99,,2013-04-04 05:12:00,
2013-04-03 22:22:00,55.0,38.0,-100.00,WNW,303,2.0,2.0,53,-99.99,,,-99.99,,2013-04-04 05:22:00,
2013-04-03 22:32:00,55.0,38.0,-100.00,NW,317,2.0,3.0,52,-99.99,,,-99.99,,2013-04-04 05:32:00,
2013-04-03 22:42:00,55.0,38.0,-100.00,NW,325,2.0,3.0,53,-99.99,,,-99.99,,2013-04-04 05:42:00,
2013-04-03 22:52:00,54.0,38.0,-100.00,NNW,336,2.0,3.0,55,-99.99,,,-99.99,,2013-04-04 05:52:00,
2013-04-03 23:02:00,54.0,38.0,-100.00,NNW,333,2.0,3.0,55,-99.99,,,-99.99,,2013-04-04 06:02:00,
2013-04-03 23:12:00,54.0,38.0,-100.00,NW,304,2.0,3.0,55,-99.99,,,-99.99,,2013-04-04 06:12:00,
2013-04-03 23:22:00,54.0,38.0,-100.00,NNW,329,2.0,3.0,55,-99.99,,,-99.99,,2013-04-04 06:22:00,
2013-04-03 23:32:00,54.0,38.0,-100.00,NW,322,2.0,3.0,55,-99.99,,,-99.99,,2013-04-04 06:32:00,
2013-04-03 23:42:00,54.0,38.0,-100.00,NW,305,1.0,2.0,54,-99.99,,,-99.99,,2013-04-04 06:42:00,
2013-04-03 23:52:00,54.0,38.0,-100.00,NNW,328,2.0,3.0,54,-99.99,,,-99.99,,2013-04-04 06:52:00,